Time;durP1;ratioP1;P1;durP2;ratioP2;P2;SDS_P1;SDS_P2;PMS_P1;PMS_P2;Temp;Humidity;BMP_temperature;BMP_pressure;BME280_temperature;BME280_humidity;BME280_pressure;Samples;Min_cycle;Max_cycle;Signal;HPM_P1;HPM_P2
2023/11/16 00:00:17;;;;;;;51.47;2.83;;;6.90;99.90;;;;;;5079456;28;20051;-78
2023/11/16 00:02:43;;;;;;;56.45;2.80;;;6.90;99.90;;;;;;5076549;28;20120;-79
2023/11/16 00:05:12;;;;;;;2.35;1.00;;;6.90;99.90;;;;;;5074643;28;20516;-77
2023/11/16 00:07:41;;;;;;;76.63;6.72;;;7.00;99.90;;;;;;5066605;28;20076;-75
2023/11/16 00:10:11;;;;;;;143.27;8.35;;;7.00;99.90;;;;;;5073453;28;20371;-78
2023/11/16 00:12:37;;;;;;;289.77;16.00;;;7.00;99.90;;;;;;5083961;28;20549;-78
2023/11/16 00:15:07;;;;;;;136.52;7.70;;;7.00;99.90;;;;;;5075007;28;20136;-79
2023/11/16 00:17:36;;;;;;;26.35;3.10;;;7.00;99.90;;;;;;5069148;28;20120;-79
2023/11/16 00:20:12;;;;;;;5.60;1.58;;;6.90;99.90;;;;;;5057830;28;20031;-78
2023/11/16 00:22:38;;;;;;;79.80;6.07;;;6.90;99.90;;;;;;5063513;28;20040;-78
2023/11/16 00:25:07;;;;;;;72.20;6.40;;;7.00;99.90;;;;;;5057128;28;20039;-78
2023/11/16 00:27:36;;;;;;;6.35;1.50;;;7.00;99.90;;;;;;5061584;28;20033;-77
2023/11/16 00:30:19;;;;;;;89.05;5.90;;;7.00;99.90;;;;;;5063334;28;20521;-79
2023/11/16 00:32:48;;;;;;;3.65;1.55;;;7.00;99.90;;;;;;5045846;28;20544;-78
2023/11/16 00:35:14;;;;;;;73.07;5.47;;;7.00;99.90;;;;;;5069828;28;20028;-78
2023/11/16 00:37:41;;;;;;;114.13;6.45;;;6.90;99.90;;;;;;5072562;28;20039;-79
2023/11/16 00:40:07;;;;;;;5.10;1.50;;;6.90;99.90;;;;;;5056563;28;20032;-78
2023/11/16 00:42:36;;;;;;;8.98;2.40;;;7.00;99.90;;;;;;5056665;28;20096;-77
2023/11/16 00:45:02;;;;;;;6.53;1.92;;;7.00;99.90;;;;;;5056519;28;20033;-78
2023/11/16 00:47:29;;;;;;;8.98;1.98;;;7.00;99.90;;;;;;5070523;28;20170;-77
2023/11/16 00:49:56;;;;;;;3.83;2.15;;;7.00;99.90;;;;;;5052705;28;20074;-77
2023/11/16 00:52:24;;;;;;;45.63;4.20;;;7.00;99.90;;;;;;5059151;28;20511;-78
2023/11/16 00:54:50;;;;;;;9.52;2.05;;;7.00;99.90;;;;;;5058849;28;20048;-78
2023/11/16 00:57:20;;;;;;;3.13;1.65;;;7.00;99.90;;;;;;5065794;28;20074;-78
2023/11/16 00:59:46;;;;;;;4.00;2.10;;;7.00;99.90;;;;;;5050649;28;20041;-77
2023/11/16 01:02:16;;;;;;;3.63;1.77;;;7.00;99.90;;;;;;5059025;28;20030;-79
2023/11/16 01:04:41;;;;;;;4.05;2.03;;;6.90;99.90;;;;;;5051709;28;20045;-78
2023/11/16 01:07:10;;;;;;;6.57;1.92;;;7.00;99.90;;;;;;5055757;28;20591;-78
2023/11/16 01:09:36;;;;;;;1.83;1.63;;;6.90;99.90;;;;;;5071210;28;20490;-77
2023/11/16 01:12:03;;;;;;;19.67;2.38;;;6.90;99.90;;;;;;5054290;28;20029;-78
2023/11/16 01:14:29;;;;;;;28.52;2.83;;;6.90;99.90;;;;;;5062532;28;20056;-78
2023/11/16 01:16:56;;;;;;;9.13;2.05;;;6.90;99.90;;;;;;5074814;28;20083;-77
2023/11/16 01:19:26;;;;;;;8.52;2.03;;;6.90;99.90;;;;;;5057496;28;20044;-77
2023/11/16 01:21:57;;;;;;;4.68;1.92;;;6.90;99.90;;;;;;5060486;28;20055;-77
2023/11/16 01:24:24;;;;;;;9.38;1.92;;;6.90;99.90;;;;;;5060792;28;20117;-77
2023/11/16 01:26:53;;;;;;;4.57;1.65;;;6.90;99.90;;;;;;5075710;28;20494;-77
2023/11/16 01:29:19;;;;;;;4.97;2.10;;;6.80;99.90;;;;;;5064183;28;20029;-78
2023/11/16 01:31:53;;;;;;;4.68;1.90;;;6.80;99.90;;;;;;5066607;28;20025;-77
2023/11/16 01:34:20;;;;;;;7.78;1.48;;;6.80;99.90;;;;;;5061719;28;20574;-78
2023/11/16 01:36:46;;;;;;;7.15;2.00;;;6.80;99.90;;;;;;5063691;28;20502;-78
2023/11/16 01:39:14;;;;;;;5.85;1.48;;;6.70;99.90;;;;;;5078287;28;20071;-77
2023/11/16 01:41:39;;;;;;;23.13;3.05;;;6.70;99.90;;;;;;5062410;28;20037;-78
2023/11/16 01:44:05;;;;;;;7.55;1.73;;;6.70;99.90;;;;;;5060651;28;20032;-77
2023/11/16 01:46:33;;;;;;;9.98;1.88;;;6.70;99.90;;;;;;5078577;28;20036;-77
2023/11/16 01:49:00;;;;;;;13.07;1.85;;;6.70;99.90;;;;;;5060664;28;20124;-76
2023/11/16 01:51:27;;;;;;;56.17;5.47;;;6.70;99.90;;;;;;5064573;28;20079;-77
2023/11/16 01:54:03;;;;;;;89.55;7.05;;;6.70;99.90;;;;;;5073967;28;20478;-77
2023/11/16 01:56:35;;;;;;;72.95;5.88;;;6.70;99.90;;;;;;5058245;28;20211;-77
2023/11/16 01:59:02;;;;;;;17.58;2.03;;;6.70;99.90;;;;;;5062239;28;20042;-77
2023/11/16 02:01:33;;;;;;;25.35;3.20;;;6.70;99.90;;;;;;5071125;28;20570;-78
2023/11/16 02:04:03;;;;;;;167.15;9.98;;;6.70;99.90;;;;;;5055893;28;20036;-77
2023/11/16 02:06:28;;;;;;;34.28;3.40;;;6.70;99.90;;;;;;5057443;28;20037;-77
2023/11/16 02:08:54;;;;;;;7.57;2.17;;;6.70;99.90;;;;;;5056449;28;20090;-77
2023/11/16 02:11:21;;;;;;;87.40;6.90;;;6.70;99.90;;;;;;5060241;28;20021;-78
2023/11/16 02:13:49;;;;;;;13.75;2.40;;;6.70;99.90;;;;;;5077504;28;20029;-78
2023/11/16 02:16:14;;;;;;;5.20;2.55;;;6.70;99.90;;;;;;5065100;28;20028;-77
2023/11/16 02:18:41;;;;;;;6.15;2.42;;;6.80;99.90;;;;;;5057250;28;20040;-78
2023/11/16 02:21:07;;;;;;;7.03;2.28;;;6.70;99.90;;;;;;5064672;28;20086;-78
2023/11/16 02:23:33;;;;;;;4.35;2.00;;;6.70;99.90;;;;;;5059375;28;20048;-78
2023/11/16 02:25:59;;;;;;;12.73;2.42;;;6.60;99.90;;;;;;5069292;28;20024;-79
2023/11/16 02:28:25;;;;;;;18.63;2.70;;;6.60;99.90;;;;;;5063205;28;20036;-78
2023/11/16 02:30:52;;;;;;;13.90;2.40;;;6.60;99.90;;;;;;5074623;28;20451;-78
2023/11/16 02:33:21;;;;;;;21.75;2.65;;;6.60;99.90;;;;;;5058659;28;20033;-78
2023/11/16 02:35:48;;;;;;;6.82;2.60;;;6.50;99.90;;;;;;5079273;28;20115;-78
2023/11/16 02:38:16;;;;;;;11.50;2.53;;;6.50;99.90;;;;;;5059650;28;20024;-77
2023/11/16 02:40:42;;;;;;;6.95;2.42;;;6.50;99.90;;;;;;5062633;28;20032;-78
2023/11/16 02:43:08;;;;;;;7.07;2.17;;;6.40;99.90;;;;;;5060815;28;20490;-78
2023/11/16 02:45:34;;;;;;;7.05;2.17;;;6.50;99.90;;;;;;5057945;28;20143;-77
2023/11/16 02:48:03;;;;;;;4.68;2.15;;;6.40;99.90;;;;;;5058944;28;20044;-77
2023/11/16 02:50:30;;;;;;;10.32;1.77;;;6.40;99.90;;;;;;5066473;28;20036;-77
2023/11/16 02:52:56;;;;;;;8.73;2.22;;;6.40;99.90;;;;;;5058335;28;20083;-78
2023/11/16 02:55:24;;;;;;;6.90;2.30;;;6.40;99.90;;;;;;5060574;28;20029;-78
2023/11/16 02:57:51;;;;;;;9.88;2.30;;;6.40;99.90;;;;;;5058188;28;20060;-78
2023/11/16 03:00:17;;;;;;;16.90;4.05;;;6.30;99.90;;;;;;5057659;28;20033;-77
2023/11/16 03:02:44;;;;;;;5.60;2.85;;;6.30;99.90;;;;;;5062764;28;20032;-77
2023/11/16 03:05:14;;;;;;;5.25;2.15;;;6.30;99.90;;;;;;5058570;28;20028;-77
2023/11/16 03:07:41;;;;;;;10.35;2.38;;;6.30;99.90;;;;;;5061323;28;20121;-78
2023/11/16 03:10:14;;;;;;;10.88;2.53;;;6.20;99.90;;;;;;5062358;28;20039;-77
2023/11/16 03:12:40;;;;;;;8.10;2.35;;;6.20;99.90;;;;;;5058452;28;20493;-78
2023/11/16 03:15:06;;;;;;;10.80;2.28;;;6.20;99.90;;;;;;5063300;28;20103;-77
2023/11/16 03:17:33;;;;;;;44.22;4.07;;;6.20;99.90;;;;;;5065361;28;20025;-77
2023/11/16 03:19:59;;;;;;;9.25;2.30;;;6.20;99.90;;;;;;5060043;28;20036;-78
2023/11/16 03:22:28;;;;;;;47.45;3.58;;;6.10;99.90;;;;;;5062384;28;20072;-78
2023/11/16 03:24:53;;;;;;;7.95;2.25;;;6.10;99.90;;;;;;5064125;28;20029;-77
2023/11/16 03:27:21;;;;;;;2.92;1.83;;;6.10;99.90;;;;;;5063167;28;20085;-77
2023/11/16 03:29:48;;;;;;;4.68;1.90;;;6.10;99.90;;;;;;5057085;28;20546;-78
2023/11/16 03:32:13;;;;;;;6.07;1.80;;;6.00;99.90;;;;;;5055880;28;20479;-77
2023/11/16 03:34:39;;;;;;;5.40;2.25;;;6.10;99.90;;;;;;5057953;28;20033;-78
2023/11/16 03:37:05;;;;;;;3.78;1.60;;;6.00;99.90;;;;;;5061361;28;20032;-78
2023/11/16 03:39:31;;;;;;;10.93;2.40;;;6.00;99.90;;;;;;5058134;28;20390;-77
2023/11/16 03:42:01;;;;;;;3.70;1.60;;;6.00;99.90;;;;;;5062454;28;20201;-78
2023/11/16 03:44:27;;;;;;;8.40;2.10;;;6.10;99.90;;;;;;5055837;28;20036;-77
2023/11/16 03:46:56;;;;;;;3.25;1.92;;;6.10;99.90;;;;;;5059160;28;20044;-77
2023/11/16 03:49:23;;;;;;;9.68;2.17;;;6.00;99.90;;;;;;5058568;28;20028;-77
2023/11/16 03:51:51;;;;;;;8.55;2.17;;;6.00;99.90;;;;;;5056414;28;20108;-78
2023/11/16 03:54:17;;;;;;;8.82;2.35;;;6.00;99.90;;;;;;5056085;28;20040;-78
2023/11/16 03:56:44;;;;;;;8.68;1.90;;;6.10;99.90;;;;;;5060193;28;20029;-78
2023/11/16 03:59:12;;;;;;;7.53;1.80;;;6.10;99.90;;;;;;5062244;28;20070;-78
2023/11/16 04:01:38;;;;;;;18.88;2.63;;;6.00;99.90;;;;;;5056726;28;20529;-77
2023/11/16 04:04:10;;;;;;;3.42;1.92;;;6.00;99.90;;;;;;5061404;28;20122;-77
2023/11/16 04:06:37;;;;;;;9.75;1.98;;;6.00;99.90;;;;;;5058124;28;20182;-78
2023/11/16 04:09:06;;;;;;;19.17;2.30;;;6.00;99.90;;;;;;5059052;28;20029;-77
2023/11/16 04:11:32;;;;;;;5.32;1.80;;;6.00;99.90;;;;;;5059460;28;20617;-77
2023/11/16 04:13:58;;;;;;;6.28;2.03;;;6.00;99.90;;;;;;5047677;28;20040;-77
2023/11/16 04:16:24;;;;;;;6.28;1.95;;;6.00;99.90;;;;;;5059920;28;20402;-77
2023/11/16 04:18:55;;;;;;;5.63;1.92;;;6.00;99.90;;;;;;5055296;28;20040;-77
2023/11/16 04:21:24;;;;;;;67.35;6.10;;;6.00;99.90;;;;;;5064870;28;20051;-77
2023/11/16 04:23:57;;;;;;;17.25;2.10;;;6.00;99.90;;;;;;5060401;28;20384;-77
2023/11/16 04:26:23;;;;;;;16.63;2.55;;;6.00;99.90;;;;;;5068175;28;20765;-77
2023/11/16 04:28:54;;;;;;;17.95;2.53;;;6.00;99.90;;;;;;5074887;28;20560;-77
2023/11/16 04:31:20;;;;;;;10.93;2.00;;;6.00;99.90;;;;;;5065439;28;20025;-77
2023/11/16 04:33:51;;;;;;;9.55;2.20;;;6.00;99.90;;;;;;5054742;28;20078;-77
2023/11/16 04:36:23;;;;;;;8.80;2.20;;;6.00;99.90;;;;;;5059751;28;20430;-78
2023/11/16 04:38:55;;;;;;;3.22;2.17;;;5.90;99.90;;;;;;5053932;28;20136;-78
2023/11/16 04:41:25;;;;;;;10.07;2.22;;;5.90;99.90;;;;;;5062532;28;20029;-77
2023/11/16 04:43:51;;;;;;;6.32;2.10;;;5.90;99.90;;;;;;5072254;28;20029;-78
2023/11/16 04:46:18;;;;;;;4.97;2.30;;;5.80;99.90;;;;;;5062449;28;20039;-77
2023/11/16 04:48:44;;;;;;;9.93;2.80;;;5.80;99.90;;;;;;5055119;28;20079;-77
2023/11/16 04:51:11;;;;;;;47.55;4.22;;;5.80;99.90;;;;;;5062264;28;20525;-78
2023/11/16 04:53:37;;;;;;;6.25;2.00;;;5.80;99.90;;;;;;5053766;28;20032;-77
2023/11/16 04:56:05;;;;;;;56.33;4.57;;;5.80;99.90;;;;;;5058586;28;20025;-77
2023/11/16 04:58:31;;;;;;;10.45;2.25;;;5.80;99.90;;;;;;5055805;28;20041;-78
2023/11/16 05:00:57;;;;;;;6.60;2.10;;;5.70;99.90;;;;;;5063267;28;20463;-77
2023/11/16 05:03:22;;;;;;;10.45;2.25;;;5.70;99.90;;;;;;5060904;28;20113;-77
2023/11/16 05:05:48;;;;;;;7.18;2.20;;;5.70;99.90;;;;;;5059013;28;20406;-77
2023/11/16 05:08:14;;;;;;;3.75;1.80;;;5.70;99.90;;;;;;5063512;28;20429;-77
2023/11/16 05:10:40;;;;;;;31.40;3.33;;;5.60;99.90;;;;;;5059904;28;20029;-77
2023/11/16 05:13:05;;;;;;;8.25;2.03;;;5.60;99.90;;;;;;5070245;28;20036;-78
2023/11/16 05:15:31;;;;;;;19.45;2.70;;;5.60;99.90;;;;;;5057100;28;20061;-78
2023/11/16 05:18:00;;;;;;;6.93;2.55;;;5.60;99.90;;;;;;5057229;28;20031;-78
2023/11/16 05:20:27;;;;;;;3.00;1.80;;;5.60;99.90;;;;;;5065792;28;20071;-79
2023/11/16 05:23:25;;;;;;;8.43;2.47;;;5.50;99.90;;;;;;5046470;28;20040;-78
2023/11/16 05:25:57;;;;;;;8.30;2.60;;;5.50;99.90;;;;;;5069626;28;20074;-78
2023/11/16 05:28:32;;;;;;;6.63;2.88;;;5.40;99.90;;;;;;5064684;28;20028;-79
2023/11/16 05:30:58;;;;;;;8.40;2.40;;;5.40;99.90;;;;;;5059546;28;20037;-78
2023/11/16 05:33:24;;;;;;;5.57;2.20;;;5.40;99.90;;;;;;5055699;28;20052;-78
2023/11/16 05:35:51;;;;;;;8.32;2.50;;;5.30;99.90;;;;;;5056628;28;20036;-77
2023/11/16 05:38:17;;;;;;;4.20;2.30;;;5.30;99.90;;;;;;5061333;28;20129;-77
2023/11/16 05:40:44;;;;;;;8.50;3.00;;;5.30;99.90;;;;;;5054508;28;20024;-77
2023/11/16 05:43:10;;;;;;;5.60;2.17;;;5.20;99.90;;;;;;5057347;28;20470;-77
2023/11/16 05:45:39;;;;;;;7.43;2.80;;;5.20;99.90;;;;;;5059267;28;20119;-78
2023/11/16 05:48:07;;;;;;;5.50;2.05;;;5.20;99.90;;;;;;5056504;28;20043;-77
2023/11/16 05:50:35;;;;;;;6.95;2.35;;;5.20;99.90;;;;;;5059265;28;20496;-78
2023/11/16 05:53:01;;;;;;;7.18;2.10;;;5.20;99.90;;;;;;5054817;28;20032;-78
2023/11/16 05:55:26;;;;;;;6.97;2.20;;;5.20;99.90;;;;;;5062226;28;20037;-77
2023/11/16 05:57:52;;;;;;;7.07;2.33;;;5.20;99.90;;;;;;5053460;28;20025;-77
2023/11/16 06:00:20;;;;;;;6.32;2.55;;;5.20;99.90;;;;;;5056228;28;20036;-78
2023/11/16 06:02:45;;;;;;;2.78;1.85;;;5.20;99.90;;;;;;5063353;28;20052;-76
2023/11/16 06:05:11;;;;;;;6.93;2.25;;;5.20;99.90;;;;;;5101720;23;20049;-78
2023/11/16 06:07:38;;;;;;;7.78;2.15;;;5.30;99.90;;;;;;5069731;28;20035;-79
2023/11/16 06:10:05;;;;;;;3.65;1.90;;;5.30;99.90;;;;;;5068836;28;20048;-79
2023/11/16 06:12:32;;;;;;;17.17;2.95;;;5.30;99.90;;;;;;5074173;28;20453;-79
2023/11/16 06:15:00;;;;;;;12.85;2.75;;;5.30;99.90;;;;;;5060733;28;20033;-78
2023/11/16 06:17:26;;;;;;;5.28;2.42;;;5.30;99.90;;;;;;5062282;28;20035;-78
2023/11/16 06:19:52;;;;;;;3.90;2.00;;;5.30;99.90;;;;;;5063758;28;20111;-79
2023/11/16 06:22:20;;;;;;;63.28;5.10;;;5.30;99.90;;;;;;5064609;28;20040;-79
2023/11/16 06:24:46;;;;;;;11.85;2.70;;;5.30;99.90;;;;;;5067609;28;20520;-79
2023/11/16 06:27:12;;;;;;;3.80;2.15;;;5.30;99.90;;;;;;5066819;28;20033;-79
2023/11/16 06:29:38;;;;;;;5.32;2.13;;;5.30;99.90;;;;;;5054559;28;20045;-79
2023/11/16 06:32:05;;;;;;;5.72;2.83;;;5.30;99.90;;;;;;5059552;28;20119;-80
2023/11/16 06:34:31;;;;;;;8.13;2.67;;;5.30;99.90;;;;;;5056618;28;20024;-78
2023/11/16 06:36:58;;;;;;;5.47;2.28;;;5.30;99.90;;;;;;5067832;28;20039;-79
2023/11/16 06:39:24;;;;;;;8.65;3.10;;;5.30;99.90;;;;;;5059653;28;20036;-79
2023/11/16 06:41:49;;;;;;;7.68;3.05;;;5.30;99.90;;;;;;5067433;28;20043;-80
2023/11/16 06:44:19;;;;;;;30.10;4.38;;;5.30;99.90;;;;;;5063137;28;20028;-79
2023/11/16 06:46:45;;;;;;;6.22;3.13;;;5.40;99.90;;;;;;5063345;28;20036;-79
2023/11/16 06:49:11;;;;;;;13.43;3.10;;;5.40;99.90;;;;;;5060866;28;20036;-79
2023/11/16 06:51:37;;;;;;;63.58;6.57;;;5.40;99.90;;;;;;5058708;28;20048;-79
2023/11/16 06:54:05;;;;;;;15.02;3.10;;;5.50;99.90;;;;;;5059488;28;20025;-79
2023/11/16 06:56:33;;;;;;;15.57;3.25;;;5.50;99.90;;;;;;5074109;28;20037;-80
2023/11/16 06:59:00;;;;;;;6.22;2.30;;;5.50;99.90;;;;;;5052774;28;20647;-79
2023/11/16 07:01:29;;;;;;;161.85;10.10;;;5.50;99.90;;;;;;5070836;28;20162;-79
2023/11/16 07:03:55;;;;;;;21.00;3.17;;;5.50;99.90;;;;;;5060875;28;20485;-79
2023/11/16 07:06:21;;;;;;;103.57;8.32;;;5.60;99.90;;;;;;5058381;28;20129;-79
2023/11/16 07:08:47;;;;;;;248.20;13.52;;;5.60;99.90;;;;;;5056332;28;20033;-79
2023/11/16 07:11:12;;;;;;;85.63;7.22;;;5.60;99.90;;;;;;5060936;28;20032;-79
2023/11/16 07:13:38;;;;;;;4.47;2.42;;;5.60;99.90;;;;;;5059398;28;20617;-79
2023/11/16 07:16:04;;;;;;;20.23;3.80;;;5.60;99.90;;;;;;5064797;28;20035;-79
2023/11/16 07:18:30;;;;;;;8.10;2.88;;;5.60;99.90;;;;;;5061492;28;20042;-79
2023/11/16 07:20:58;;;;;;;7.25;3.13;;;5.60;99.90;;;;;;5059314;28;20482;-79
2023/11/16 07:23:24;;;;;;;6.85;2.80;;;5.60;99.90;;;;;;5056580;28;20537;-79
2023/11/16 07:25:49;;;;;;;3.92;2.75;;;5.60;99.90;;;;;;5074388;28;20437;-79
2023/11/16 07:28:15;;;;;;;6.93;3.40;;;5.70;99.90;;;;;;5061180;28;20047;-79
2023/11/16 07:30:43;;;;;;;13.75;3.50;;;5.70;99.90;;;;;;5059467;28;20036;-78
2023/11/16 07:33:11;;;;;;;7.38;3.40;;;5.70;99.90;;;;;;5057640;28;20409;-78
2023/11/16 07:35:37;;;;;;;10.85;3.45;;;5.80;99.90;;;;;;5058238;28;20036;-79
2023/11/16 07:38:04;;;;;;;6.40;3.33;;;5.80;99.90;;;;;;5053070;28;20039;-79
2023/11/16 07:40:29;;;;;;;9.18;4.05;;;5.80;99.90;;;;;;5061525;28;20078;-79
2023/11/16 07:42:55;;;;;;;11.93;5.38;;;5.90;99.90;;;;;;5062162;28;20065;-79
2023/11/16 07:45:21;;;;;;;11.32;4.18;;;5.90;99.90;;;;;;5064914;28;20028;-78
2023/11/16 07:47:47;;;;;;;8.75;3.58;;;5.90;99.90;;;;;;5062058;28;20036;-79
2023/11/16 07:50:14;;;;;;;11.85;3.38;;;5.90;99.90;;;;;;5055337;28;20078;-78
2023/11/16 07:52:43;;;;;;;7.30;3.45;;;5.90;99.90;;;;;;5063710;28;20099;-78
2023/11/16 07:55:11;;;;;;;8.70;3.22;;;5.90;99.90;;;;;;5066103;28;20115;-78
2023/11/16 07:57:37;;;;;;;6.35;2.97;;;5.90;99.90;;;;;;5056988;28;20045;-79
2023/11/16 08:00:15;;;;;;;7.75;2.80;;;5.90;99.90;;;;;;5063889;28;20035;-79
2023/11/16 08:05:26;;;;;;;5.33;2.97;;;6.00;99.90;;;;;;5062437;28;20043;-78
2023/11/16 08:07:55;;;;;;;4.80;2.65;;;6.00;99.90;;;;;;5059405;28;20025;-79
2023/11/16 08:10:27;;;;;;;4.43;2.83;;;6.00;99.90;;;;;;5063504;28;20029;-79
2023/11/16 08:12:56;;;;;;;8.60;2.67;;;6.00;99.90;;;;;;5059809;28;20065;-79
2023/11/16 08:15:24;;;;;;;8.70;3.03;;;6.00;99.90;;;;;;5066711;28;20026;-79
2023/11/16 08:17:54;;;;;;;5.47;2.75;;;6.10;99.90;;;;;;5060708;28;20036;-79
2023/11/16 08:20:23;;;;;;;4.20;2.75;;;6.10;99.90;;;;;;5054572;28;20033;-79
2023/11/16 08:22:52;;;;;;;6.35;2.80;;;6.10;99.90;;;;;;5067597;28;20064;-78
2023/11/16 08:25:21;;;;;;;7.95;3.30;;;6.20;99.90;;;;;;5060279;28;20032;-79
2023/11/16 08:27:49;;;;;;;3.95;2.90;;;6.30;99.90;;;;;;5063953;28;20035;-79
2023/11/16 08:30:16;;;;;;;6.50;2.97;;;6.30;99.90;;;;;;5053423;28;20032;-79
2023/11/16 08:32:42;;;;;;;5.00;3.10;;;6.40;99.90;;;;;;5055704;28;20035;-80
2023/11/16 08:35:10;;;;;;;12.45;3.03;;;6.40;99.90;;;;;;5057555;28;20021;-80
2023/11/16 08:37:37;;;;;;;13.88;3.90;;;6.60;99.90;;;;;;5054695;28;20111;-80
2023/11/16 08:40:03;;;;;;;6.50;3.28;;;6.70;99.90;;;;;;5059937;28;20024;-79
2023/11/16 08:42:37;;;;;;;10.00;3.45;;;6.70;99.90;;;;;;5065399;28;20056;-79
2023/11/16 08:45:04;;;;;;;7.43;3.50;;;6.80;99.90;;;;;;5057416;28;20060;-79
2023/11/16 08:47:31;;;;;;;7.95;3.25;;;6.90;99.90;;;;;;5059654;28;20041;-80
2023/11/16 08:49:57;;;;;;;9.93;3.55;;;6.90;99.90;;;;;;5058130;28;20083;-79
2023/11/16 08:52:23;;;;;;;8.35;2.92;;;6.90;99.90;;;;;;5074698;28;20126;-80
2023/11/16 08:54:50;;;;;;;8.55;3.38;;;6.90;99.90;;;;;;5061105;28;20029;-80
2023/11/16 08:57:19;;;;;;;6.07;2.78;;;6.90;99.90;;;;;;5061071;28;20513;-80
2023/11/16 08:59:59;;;;;;;7.22;2.78;;;6.80;99.90;;;;;;5052841;28;20041;-79
2023/11/16 09:02:25;;;;;;;5.15;2.72;;;6.80;99.90;;;;;;5058887;28;20108;-80
2023/11/16 09:04:52;;;;;;;3.80;2.88;;;6.80;99.90;;;;;;5057024;28;20043;-80
2023/11/16 09:07:18;;;;;;;5.43;2.80;;;6.80;99.90;;;;;;5076124;28;20052;-80
2023/11/16 09:09:45;;;;;;;4.88;2.67;;;6.70;99.90;;;;;;5049636;28;20544;-80
2023/11/16 09:12:16;;;;;;;5.25;2.72;;;6.70;99.90;;;;;;5059749;28;20033;-81
2023/11/16 09:14:42;;;;;;;7.72;2.80;;;6.80;99.90;;;;;;5066856;28;20075;-79
2023/11/16 09:17:17;;;;;;;6.38;3.42;;;6.70;99.90;;;;;;5058944;28;20040;-80
2023/11/16 09:19:50;;;;;;;7.20;2.72;;;6.80;99.90;;;;;;5059111;28;20037;-79
2023/11/16 09:22:17;;;;;;;6.00;2.47;;;6.70;99.90;;;;;;5068408;28;20033;-80
2023/11/16 09:24:44;;;;;;;4.53;2.50;;;6.70;99.90;;;;;;5067657;28;20029;-79
2023/11/16 09:27:10;;;;;;;7.20;2.65;;;6.70;99.90;;;;;;5057540;28;20401;-79
2023/11/16 09:29:38;;;;;;;5.93;2.45;;;6.70;99.90;;;;;;5054739;28;20037;-79
2023/11/16 09:32:05;;;;;;;4.30;2.33;;;6.60;99.90;;;;;;5057077;28;20039;-79
2023/11/16 09:34:31;;;;;;;7.15;2.60;;;6.70;99.90;;;;;;5062326;28;20021;-80
2023/11/16 09:37:01;;;;;;;4.38;2.70;;;6.70;99.90;;;;;;5063136;28;20099;-79
2023/11/16 09:39:27;;;;;;;5.28;2.40;;;6.70;99.90;;;;;;5056283;28;20085;-80
2023/11/16 09:41:55;;;;;;;6.28;2.67;;;6.70;99.90;;;;;;5060589;28;20120;-79
2023/11/16 09:44:27;;;;;;;4.97;2.35;;;6.80;99.90;;;;;;5064186;28;20064;-80
2023/11/16 09:47:02;;;;;;;7.10;2.78;;;6.80;99.90;;;;;;5065190;28;20483;-79
2023/11/16 09:49:32;;;;;;;4.47;2.67;;;6.90;99.90;;;;;;5065768;28;20836;-80
2023/11/16 09:51:59;;;;;;;4.93;2.30;;;6.90;99.90;;;;;;5077962;28;20115;-79
2023/11/16 09:54:28;;;;;;;5.38;2.30;;;6.90;99.90;;;;;;5064837;28;20067;-79
2023/11/16 09:57:00;;;;;;;5.05;2.10;;;6.90;99.90;;;;;;5071619;28;20454;-79
2023/11/16 09:59:34;;;;;;;6.60;2.50;;;6.90;99.90;;;;;;5064514;28;20207;-80
2023/11/16 10:02:08;;;;;;;4.38;2.35;;;7.00;99.90;;;;;;5066240;28;20086;-78
2023/11/16 10:04:35;;;;;;;4.93;2.42;;;6.90;99.90;;;;;;5057146;28;20037;-79
2023/11/16 10:07:04;;;;;;;8.02;2.38;;;6.90;99.90;;;;;;5062350;28;20437;-80
2023/11/16 10:09:41;;;;;;;5.75;2.67;;;6.90;99.90;;;;;;5061446;28;20033;-82
2023/11/16 10:12:08;;;;;;;4.72;2.40;;;7.00;99.90;;;;;;5063706;28;20466;-80
2023/11/16 10:14:50;;;;;;;3.25;1.88;;;6.90;99.90;;;;;;5068409;28;20561;-79
2023/11/16 10:17:25;;;;;;;6.22;2.33;;;6.90;99.90;;;;;;5064923;28;20032;-80
2023/11/16 10:19:51;;;;;;;4.65;2.22;;;6.90;99.90;;;;;;5056117;28;20533;-79
2023/11/16 10:22:17;;;;;;;5.93;2.80;;;6.90;99.90;;;;;;5064247;28;20079;-78
2023/11/16 10:24:44;;;;;;;5.82;2.60;;;6.90;99.90;;;;;;5067207;28;20438;-80
2023/11/16 10:27:11;;;;;;;5.43;2.58;;;6.90;99.90;;;;;;5060583;28;20025;-80
2023/11/16 10:29:39;;;;;;;4.40;2.30;;;7.00;99.90;;;;;;5059226;28;20810;-80
2023/11/16 10:32:06;;;;;;;3.20;1.95;;;7.00;99.90;;;;;;5067624;28;20043;-79
2023/11/16 10:34:32;;;;;;;10.13;2.75;;;7.00;99.90;;;;;;5061320;28;20047;-80
2023/11/16 10:37:00;;;;;;;4.57;2.72;;;7.10;99.90;;;;;;5068040;28;20028;-79
2023/11/16 10:39:27;;;;;;;6.60;2.50;;;7.10;99.90;;;;;;5057587;28;20029;-81
2023/11/16 10:41:53;;;;;;;6.45;2.53;;;7.10;99.90;;;;;;5061148;28;20036;-80
2023/11/16 10:44:23;;;;;;;3.17;2.28;;;7.20;99.90;;;;;;5058998;28;20036;-80
2023/11/16 10:46:49;;;;;;;8.10;2.42;;;7.30;99.90;;;;;;5064284;28;20028;-79
2023/11/16 10:49:16;;;;;;;6.00;2.63;;;7.40;99.90;;;;;;5059036;28;20029;-80
2023/11/16 10:51:50;;;;;;;6.70;2.30;;;7.40;99.90;;;;;;5054257;28;20033;-80
2023/11/16 10:54:19;;;;;;;4.65;2.55;;;7.40;99.90;;;;;;5064917;28;20036;-79
2023/11/16 10:56:48;;;;;;;3.58;2.30;;;7.50;99.90;;;;;;5065619;28;20031;-80
2023/11/16 10:59:17;;;;;;;8.23;2.47;;;7.50;99.90;;;;;;5061093;28;20024;-80
2023/11/16 11:01:43;;;;;;;2.67;1.90;;;7.50;99.90;;;;;;5064231;28;20033;-80
2023/11/16 11:04:09;;;;;;;2.78;1.50;;;7.50;99.90;;;;;;5058105;28;20044;-80
2023/11/16 11:06:41;;;;;;;5.30;2.05;;;7.50;99.90;;;;;;5065454;28;20135;-80
2023/11/16 11:09:09;;;;;;;3.78;1.98;;;7.50;99.90;;;;;;5054020;28;20036;-80
2023/11/16 11:11:40;;;;;;;3.58;1.52;;;7.60;99.90;;;;;;5059985;28;20044;-80
2023/11/16 11:14:10;;;;;;;7.70;1.90;;;7.60;99.90;;;;;;5067689;28;20414;-80
2023/11/16 11:16:39;;;;;;;2.20;1.88;;;7.60;99.90;;;;;;5065787;28;20541;-80
2023/11/16 11:19:05;;;;;;;6.57;1.90;;;7.60;99.90;;;;;;5059603;28;20059;-81
2023/11/16 11:21:31;;;;;;;2.53;1.50;;;7.60;99.90;;;;;;5066732;28;20028;-80
2023/11/16 11:24:04;;;;;;;3.78;1.60;;;7.60;99.90;;;;;;5059299;28;20668;-81
2023/11/16 11:26:37;;;;;;;6.25;2.35;;;7.50;99.90;;;;;;5056959;28;20021;-80
2023/11/16 11:29:04;;;;;;;8.57;1.95;;;7.50;99.90;;;;;;5051470;28;20094;-80
2023/11/16 11:32:03;;;;;;;8.05;2.30;;;7.50;99.90;;;;;;5057151;28;20096;-81
2023/11/16 11:34:34;;;;;;;5.53;2.50;;;7.60;99.90;;;;;;5057623;28;20041;-81
2023/11/16 11:37:03;;;;;;;7.40;2.33;;;7.70;99.90;;;;;;5066548;28;20043;-81
2023/11/16 11:39:46;;;;;;;3.60;2.47;;;7.70;99.90;;;;;;5057014;28;20513;-82
2023/11/16 11:42:12;;;;;;;3.22;2.67;;;7.70;99.90;;;;;;5048309;28;20550;-80
2023/11/16 11:44:51;;;;;;;4.90;2.65;;;7.80;99.90;;;;;;5052068;28;20040;-81
2023/11/16 11:47:19;;;;;;;5.47;2.38;;;7.90;99.90;;;;;;5060886;28;20051;-81
2023/11/16 11:49:46;;;;;;;4.22;1.98;;;7.90;99.90;;;;;;5055842;28;20033;-81
2023/11/16 11:52:12;;;;;;;8.15;2.20;;;7.90;99.90;;;;;;5059497;28;20037;-81
2023/11/16 11:54:40;;;;;;;5.28;2.30;;;7.90;99.90;;;;;;5058375;28;20041;-81
2023/11/16 11:57:06;;;;;;;4.40;2.50;;;8.00;99.90;;;;;;5066341;28;20509;-80
2023/11/16 11:59:35;;;;;;;3.47;2.00;;;8.00;99.90;;;;;;5058636;28;20025;-80
2023/11/16 12:02:08;;;;;;;5.22;2.33;;;7.90;99.90;;;;;;5078042;28;20047;-79
2023/11/16 12:04:35;;;;;;;5.57;2.25;;;7.90;99.90;;;;;;5056470;28;20505;-80
2023/11/16 12:07:10;;;;;;;4.20;2.15;;;7.90;99.90;;;;;;5058355;28;20049;-78
2023/11/16 12:09:40;;;;;;;2.70;1.70;;;7.90;99.90;;;;;;5055757;28;20049;-81
2023/11/16 12:12:07;;;;;;;2.88;1.80;;;7.70;99.90;;;;;;5063449;28;20031;-81
2023/11/16 12:14:38;;;;;;;3.88;2.03;;;7.80;99.90;;;;;;5052011;28;20033;-81
2023/11/16 12:17:04;;;;;;;4.18;1.80;;;7.80;99.90;;;;;;5062650;28;20487;-82
2023/11/16 12:19:40;;;;;;;4.97;3.15;;;7.70;99.90;;;;;;5057757;28;20025;-82
2023/11/16 12:22:08;;;;;;;5.88;2.75;;;7.60;99.90;;;;;;5063240;28;20273;-81
2023/11/16 12:24:34;;;;;;;4.25;2.22;;;7.40;99.90;;;;;;5063303;28;20070;-82
2023/11/16 12:27:00;;;;;;;5.45;2.22;;;7.40;99.90;;;;;;5059317;28;20040;-81
2023/11/16 12:29:30;;;;;;;4.28;2.25;;;7.30;99.90;;;;;;5061492;28;20227;-83
2023/11/16 12:31:56;;;;;;;4.25;2.50;;;7.40;99.90;;;;;;5060861;28;20024;-80
2023/11/16 12:34:25;;;;;;;5.00;2.65;;;7.30;99.90;;;;;;5053181;28;20048;-80
2023/11/16 12:36:55;;;;;;;6.18;2.45;;;7.30;99.90;;;;;;5051882;28;20032;-81
2023/11/16 12:39:27;;;;;;;4.50;2.25;;;7.40;99.90;;;;;;5046373;28;20916;-80
2023/11/16 12:41:55;;;;;;;3.90;2.25;;;7.40;99.90;;;;;;5060791;28;20025;-84
2023/11/16 12:44:23;;;;;;;6.55;2.78;;;7.40;99.90;;;;;;5060264;28;20573;-81
2023/11/16 12:46:49;;;;;;;4.55;2.25;;;7.40;99.90;;;;;;5039980;28;20456;-82
2023/11/16 12:49:15;;;;;;;2.70;2.28;;;7.40;99.90;;;;;;5048882;28;20087;-82
2023/11/16 12:51:42;;;;;;;5.90;2.58;;;7.30;99.90;;;;;;5047051;28;20041;-81
2023/11/16 12:54:08;;;;;;;3.45;2.55;;;7.30;99.90;;;;;;5052830;28;20044;-81
2023/11/16 12:56:34;;;;;;;4.15;2.20;;;7.30;99.90;;;;;;5058043;28;20021;-82
2023/11/16 12:59:02;;;;;;;6.28;2.40;;;7.30;99.90;;;;;;5053913;28;20445;-81
2023/11/16 13:01:29;;;;;;;5.70;2.03;;;7.20;99.90;;;;;;5047380;28;20036;-82